sensor_id;sensor_type;location;lat;lon;timestamp;P1;durP1;ratioP1;P2;durP2;ratioP2
4202;SDS011;2115;51.038;7.006;2023-04-03T00:00:55;1.37;;;1.27;;
4202;SDS011;2115;51.038;7.006;2023-04-03T00:03:21;0.90;;;0.90;;
4202;SDS011;2115;51.038;7.006;2023-04-03T00:05:47;1.53;;;1.43;;
4202;SDS011;2115;51.038;7.006;2023-04-03T00:08:13;0.87;;;0.83;;
4202;SDS011;2115;51.038;7.006;2023-04-03T00:10:38;1.77;;;1.63;;
4202;SDS011;2115;51.038;7.006;2023-04-03T00:13:04;2.00;;;1.60;;
4202;SDS011;2115;51.038;7.006;2023-04-03T00:15:30;0.80;;;0.80;;
4202;SDS011;2115;51.038;7.006;2023-04-03T00:17:56;1.87;;;1.27;;
4202;SDS011;2115;51.038;7.006;2023-04-03T00:20:22;0.83;;;0.83;;
4202;SDS011;2115;51.038;7.006;2023-04-03T00:22:47;1.30;;;1.20;;
4202;SDS011;2115;51.038;7.006;2023-04-03T00:25:12;2.40;;;1.80;;
4202;SDS011;2115;51.038;7.006;2023-04-03T00:27:38;2.33;;;1.80;;
4202;SDS011;2115;51.038;7.006;2023-04-03T00:30:04;1.00;;;1.00;;
4202;SDS011;2115;51.038;7.006;2023-04-03T00:32:32;1.03;;;1.03;;
4202;SDS011;2115;51.038;7.006;2023-04-03T00:34:58;1.53;;;1.43;;
4202;SDS011;2115;51.038;7.006;2023-04-03T00:37:23;2.80;;;2.10;;
4202;SDS011;2115;51.038;7.006;2023-04-03T00:39:48;2.50;;;2.20;;
4202;SDS011;2115;51.038;7.006;2023-04-03T00:42:14;1.20;;;1.20;;
4202;SDS011;2115;51.038;7.006;2023-04-03T00:47:05;1.77;;;1.47;;
4202;SDS011;2115;51.038;7.006;2023-04-03T00:49:32;1.30;;;1.20;;
4202;SDS011;2115;51.038;7.006;2023-04-03T00:51:58;3.73;;;2.33;;
4202;SDS011;2115;51.038;7.006;2023-04-03T00:54:24;2.60;;;1.97;;
4202;SDS011;2115;51.038;7.006;2023-04-03T00:56:51;3.00;;;2.17;;
4202;SDS011;2115;51.038;7.006;2023-04-03T00:59:18;2.33;;;1.87;;
4202;SDS011;2115;51.038;7.006;2023-04-03T01:01:48;4.30;;;2.77;;
4202;SDS011;2115;51.038;7.006;2023-04-03T01:04:29;1.10;;;1.10;;
4202;SDS011;2115;51.038;7.006;2023-04-03T01:07:00;2.17;;;1.87;;
4202;SDS011;2115;51.038;7.006;2023-04-03T01:09:44;4.00;;;2.60;;
4202;SDS011;2115;51.038;7.006;2023-04-03T01:14:46;1.00;;;1.00;;
4202;SDS011;2115;51.038;7.006;2023-04-03T01:17:28;1.00;;;1.00;;
4202;SDS011;2115;51.038;7.006;2023-04-03T01:25:29;3.60;;;2.50;;
4202;SDS011;2115;51.038;7.006;2023-04-03T01:27:54;1.73;;;1.50;;
4202;SDS011;2115;51.038;7.006;2023-04-03T01:30:20;2.93;;;2.30;;
4202;SDS011;2115;51.038;7.006;2023-04-03T01:32:46;2.80;;;2.07;;
4202;SDS011;2115;51.038;7.006;2023-04-03T01:35:11;1.10;;;1.10;;
4202;SDS011;2115;51.038;7.006;2023-04-03T01:37:38;1.47;;;1.37;;
4202;SDS011;2115;51.038;7.006;2023-04-03T01:40:04;3.50;;;2.58;;
4202;SDS011;2115;51.038;7.006;2023-04-03T01:42:30;2.07;;;1.67;;
4202;SDS011;2115;51.038;7.006;2023-04-03T01:44:56;1.33;;;1.27;;
4202;SDS011;2115;51.038;7.006;2023-04-03T01:47:21;2.30;;;1.87;;
4202;SDS011;2115;51.038;7.006;2023-04-03T01:49:47;1.53;;;1.37;;
4202;SDS011;2115;51.038;7.006;2023-04-03T01:52:12;1.83;;;1.57;;
4202;SDS011;2115;51.038;7.006;2023-04-03T01:54:38;3.17;;;2.27;;
4202;SDS011;2115;51.038;7.006;2023-04-03T01:57:03;7.77;;;4.17;;
4202;SDS011;2115;51.038;7.006;2023-04-03T01:59:28;1.30;;;1.20;;
4202;SDS011;2115;51.038;7.006;2023-04-03T02:01:54;1.23;;;1.23;;
4202;SDS011;2115;51.038;7.006;2023-04-03T02:04:19;1.43;;;1.33;;
4202;SDS011;2115;51.038;7.006;2023-04-03T02:06:45;2.80;;;2.07;;
4202;SDS011;2115;51.038;7.006;2023-04-03T02:09:10;4.50;;;2.50;;
4202;SDS011;2115;51.038;7.006;2023-04-03T02:11:35;2.70;;;2.07;;
4202;SDS011;2115;51.038;7.006;2023-04-03T02:14:01;1.00;;;1.00;;
4202;SDS011;2115;51.038;7.006;2023-04-03T02:16:26;1.60;;;1.50;;
4202;SDS011;2115;51.038;7.006;2023-04-03T02:18:51;3.47;;;2.60;;
4202;SDS011;2115;51.038;7.006;2023-04-03T02:21:17;2.83;;;2.13;;
4202;SDS011;2115;51.038;7.006;2023-04-03T02:23:42;2.70;;;1.87;;
4202;SDS011;2115;51.038;7.006;2023-04-03T02:26:11;2.90;;;2.10;;
4202;SDS011;2115;51.038;7.006;2023-04-03T02:28:38;1.00;;;1.00;;
4202;SDS011;2115;51.038;7.006;2023-04-03T02:31:04;1.70;;;1.60;;
4202;SDS011;2115;51.038;7.006;2023-04-03T02:33:31;1.97;;;1.70;;
4202;SDS011;2115;51.038;7.006;2023-04-03T02:35:57;1.00;;;1.00;;
4202;SDS011;2115;51.038;7.006;2023-04-03T02:38:23;2.40;;;1.87;;
4202;SDS011;2115;51.038;7.006;2023-04-03T02:40:49;1.40;;;1.30;;
4202;SDS011;2115;51.038;7.006;2023-04-03T02:43:14;3.60;;;2.57;;
4202;SDS011;2115;51.038;7.006;2023-04-03T02:45:39;3.50;;;2.67;;
4202;SDS011;2115;51.038;7.006;2023-04-03T02:48:05;1.10;;;1.10;;
4202;SDS011;2115;51.038;7.006;2023-04-03T02:50:30;1.00;;;1.00;;
4202;SDS011;2115;51.038;7.006;2023-04-03T02:52:56;1.17;;;1.07;;
4202;SDS011;2115;51.038;7.006;2023-04-03T02:55:21;3.17;;;2.37;;
4202;SDS011;2115;51.038;7.006;2023-04-03T02:57:46;2.20;;;1.73;;
4202;SDS011;2115;51.038;7.006;2023-04-03T03:00:12;0.83;;;0.83;;
4202;SDS011;2115;51.038;7.006;2023-04-03T03:02:38;3.23;;;2.37;;
4202;SDS011;2115;51.038;7.006;2023-04-03T03:05:03;3.53;;;2.30;;
4202;SDS011;2115;51.038;7.006;2023-04-03T03:07:29;2.43;;;2.03;;
4202;SDS011;2115;51.038;7.006;2023-04-03T03:09:54;1.97;;;1.67;;
4202;SDS011;2115;51.038;7.006;2023-04-03T03:12:20;1.37;;;1.27;;
4202;SDS011;2115;51.038;7.006;2023-04-03T03:14:47;5.13;;;3.23;;
4202;SDS011;2115;51.038;7.006;2023-04-03T03:17:12;2.30;;;1.73;;
4202;SDS011;2115;51.038;7.006;2023-04-03T03:19:38;2.20;;;1.80;;
4202;SDS011;2115;51.038;7.006;2023-04-03T03:22:03;4.73;;;3.07;;
4202;SDS011;2115;51.038;7.006;2023-04-03T03:24:29;2.20;;;1.77;;
4202;SDS011;2115;51.038;7.006;2023-04-03T03:26:54;7.50;;;4.47;;
4202;SDS011;2115;51.038;7.006;2023-04-03T03:29:20;1.60;;;1.50;;
4202;SDS011;2115;51.038;7.006;2023-04-03T03:31:45;4.20;;;2.77;;
4202;SDS011;2115;51.038;7.006;2023-04-03T03:34:11;2.73;;;2.10;;
4202;SDS011;2115;51.038;7.006;2023-04-03T03:36:36;1.90;;;1.90;;
4202;SDS011;2115;51.038;7.006;2023-04-03T03:39:02;0.80;;;0.80;;
4202;SDS011;2115;51.038;7.006;2023-04-03T03:41:27;2.73;;;1.97;;
4202;SDS011;2115;51.038;7.006;2023-04-03T03:43:52;1.63;;;1.40;;
4202;SDS011;2115;51.038;7.006;2023-04-03T03:46:18;0.90;;;0.90;;
4202;SDS011;2115;51.038;7.006;2023-04-03T03:48:43;2.50;;;1.83;;
4202;SDS011;2115;51.038;7.006;2023-04-03T03:51:09;1.03;;;1.03;;
4202;SDS011;2115;51.038;7.006;2023-04-03T03:53:34;0.60;;;0.60;;
4202;SDS011;2115;51.038;7.006;2023-04-03T03:56:00;1.47;;;1.37;;
4202;SDS011;2115;51.038;7.006;2023-04-03T03:58:25;0.27;;;0.27;;
4202;SDS011;2115;51.038;7.006;2023-04-03T04:00:51;0.80;;;0.77;;
4202;SDS011;2115;51.038;7.006;2023-04-03T04:03:16;1.00;;;0.90;;
4202;SDS011;2115;51.038;7.006;2023-04-03T04:05:41;2.00;;;1.53;;
4202;SDS011;2115;51.038;7.006;2023-04-03T04:08:08;3.17;;;2.23;;
4202;SDS011;2115;51.038;7.006;2023-04-03T04:10:34;2.20;;;1.53;;
4202;SDS011;2115;51.038;7.006;2023-04-03T04:12:59;0.40;;;0.40;;
4202;SDS011;2115;51.038;7.006;2023-04-03T04:15:25;1.33;;;1.20;;
4202;SDS011;2115;51.038;7.006;2023-04-03T04:17:51;0.40;;;0.40;;
4202;SDS011;2115;51.038;7.006;2023-04-03T04:20:16;1.40;;;1.13;;
4202;SDS011;2115;51.038;7.006;2023-04-03T04:22:42;1.50;;;1.20;;
4202;SDS011;2115;51.038;7.006;2023-04-03T04:25:07;0.40;;;0.40;;
4202;SDS011;2115;51.038;7.006;2023-04-03T04:27:33;0.40;;;0.40;;
4202;SDS011;2115;51.038;7.006;2023-04-03T04:29:58;0.45;;;0.45;;
4202;SDS011;2115;51.038;7.006;2023-04-03T04:32:24;1.17;;;0.90;;
4202;SDS011;2115;51.038;7.006;2023-04-03T04:34:49;0.50;;;0.43;;
4202;SDS011;2115;51.038;7.006;2023-04-03T04:37:15;1.13;;;0.90;;
4202;SDS011;2115;51.038;7.006;2023-04-03T04:39:40;1.47;;;1.13;;
4202;SDS011;2115;51.038;7.006;2023-04-03T04:42:06;34.67;;;20.50;;
4202;SDS011;2115;51.038;7.006;2023-04-03T04:44:32;1.27;;;1.17;;
4202;SDS011;2115;51.038;7.006;2023-04-03T04:46:57;0.97;;;0.93;;
4202;SDS011;2115;51.038;7.006;2023-04-03T04:49:22;1.33;;;1.27;;
4202;SDS011;2115;51.038;7.006;2023-04-03T04:51:48;1.43;;;1.43;;
4202;SDS011;2115;51.038;7.006;2023-04-03T04:54:13;3.10;;;2.30;;
4202;SDS011;2115;51.038;7.006;2023-04-03T04:56:39;1.13;;;1.07;;
4202;SDS011;2115;51.038;7.006;2023-04-03T04:59:04;1.87;;;1.57;;
4202;SDS011;2115;51.038;7.006;2023-04-03T05:01:29;1.20;;;1.10;;
4202;SDS011;2115;51.038;7.006;2023-04-03T05:03:55;4.95;;;3.50;;
4202;SDS011;2115;51.038;7.006;2023-04-03T05:06:20;6.43;;;3.90;;
4202;SDS011;2115;51.038;7.006;2023-04-03T05:08:46;3.50;;;2.30;;
4202;SDS011;2115;51.038;7.006;2023-04-03T05:11:11;2.33;;;1.60;;
4202;SDS011;2115;51.038;7.006;2023-04-03T05:13:36;0.40;;;0.40;;
4202;SDS011;2115;51.038;7.006;2023-04-03T05:16:02;4.10;;;2.60;;
4202;SDS011;2115;51.038;7.006;2023-04-03T05:18:27;2.60;;;1.97;;
4202;SDS011;2115;51.038;7.006;2023-04-03T05:20:53;0.70;;;0.70;;
4202;SDS011;2115;51.038;7.006;2023-04-03T05:23:18;2.07;;;1.43;;
4202;SDS011;2115;51.038;7.006;2023-04-03T05:25:44;1.03;;;0.90;;
4202;SDS011;2115;51.038;7.006;2023-04-03T05:28:11;1.33;;;1.00;;
4202;SDS011;2115;51.038;7.006;2023-04-03T05:30:37;0.70;;;0.67;;
4202;SDS011;2115;51.038;7.006;2023-04-03T05:33:02;1.77;;;1.33;;
4202;SDS011;2115;51.038;7.006;2023-04-03T05:35:28;2.03;;;1.63;;
4202;SDS011;2115;51.038;7.006;2023-04-03T05:37:53;0.70;;;0.70;;
4202;SDS011;2115;51.038;7.006;2023-04-03T05:40:19;0.83;;;0.77;;
4202;SDS011;2115;51.038;7.006;2023-04-03T05:42:44;0.60;;;0.60;;
4202;SDS011;2115;51.038;7.006;2023-04-03T05:45:10;0.90;;;0.90;;
4202;SDS011;2115;51.038;7.006;2023-04-03T05:47:35;1.27;;;1.10;;
4202;SDS011;2115;51.038;7.006;2023-04-03T05:50:01;1.40;;;1.30;;
4202;SDS011;2115;51.038;7.006;2023-04-03T05:52:27;0.93;;;0.90;;
4202;SDS011;2115;51.038;7.006;2023-04-03T05:54:58;1.33;;;1.23;;
4202;SDS011;2115;51.038;7.006;2023-04-03T05:57:24;1.10;;;1.00;;
4202;SDS011;2115;51.038;7.006;2023-04-03T05:59:49;1.57;;;1.27;;
4202;SDS011;2115;51.038;7.006;2023-04-03T06:02:16;1.97;;;1.33;;
4202;SDS011;2115;51.038;7.006;2023-04-03T06:04:43;1.70;;;1.27;;
4202;SDS011;2115;51.038;7.006;2023-04-03T06:07:12;2.03;;;1.53;;
4202;SDS011;2115;51.038;7.006;2023-04-03T06:09:40;0.87;;;0.83;;
4202;SDS011;2115;51.038;7.006;2023-04-03T06:12:06;2.60;;;1.77;;
4202;SDS011;2115;51.038;7.006;2023-04-03T06:14:31;2.73;;;2.00;;
4202;SDS011;2115;51.038;7.006;2023-04-03T06:16:57;1.70;;;1.33;;
4202;SDS011;2115;51.038;7.006;2023-04-03T06:19:22;0.80;;;0.80;;
4202;SDS011;2115;51.038;7.006;2023-04-03T06:21:48;0.60;;;0.60;;
4202;SDS011;2115;51.038;7.006;2023-04-03T06:24:15;3.90;;;2.50;;
4202;SDS011;2115;51.038;7.006;2023-04-03T06:26:41;0.53;;;0.53;;
4202;SDS011;2115;51.038;7.006;2023-04-03T06:29:07;2.30;;;1.57;;
4202;SDS011;2115;51.038;7.006;2023-04-03T06:31:32;1.30;;;1.20;;
4202;SDS011;2115;51.038;7.006;2023-04-03T06:33:58;1.10;;;1.00;;
4202;SDS011;2115;51.038;7.006;2023-04-03T06:36:23;1.43;;;1.20;;
4202;SDS011;2115;51.038;7.006;2023-04-03T06:38:49;4.10;;;2.57;;
4202;SDS011;2115;51.038;7.006;2023-04-03T06:41:15;5.50;;;3.37;;
4202;SDS011;2115;51.038;7.006;2023-04-03T06:43:41;4.07;;;2.60;;
4202;SDS011;2115;51.038;7.006;2023-04-03T06:46:11;3.03;;;2.17;;
4202;SDS011;2115;51.038;7.006;2023-04-03T06:48:46;3.13;;;2.17;;
4202;SDS011;2115;51.038;7.006;2023-04-03T06:51:25;1.17;;;1.13;;
4202;SDS011;2115;51.038;7.006;2023-04-03T06:53:53;1.73;;;1.40;;
4202;SDS011;2115;51.038;7.006;2023-04-03T06:56:20;2.33;;;1.83;;
4202;SDS011;2115;51.038;7.006;2023-04-03T06:58:47;4.30;;;2.70;;
4202;SDS011;2115;51.038;7.006;2023-04-03T07:01:13;1.93;;;1.73;;
4202;SDS011;2115;51.038;7.006;2023-04-03T07:03:40;3.53;;;2.63;;
4202;SDS011;2115;51.038;7.006;2023-04-03T07:06:06;3.83;;;2.50;;
4202;SDS011;2115;51.038;7.006;2023-04-03T07:08:32;1.37;;;1.30;;
4202;SDS011;2115;51.038;7.006;2023-04-03T07:10:58;1.60;;;1.50;;
4202;SDS011;2115;51.038;7.006;2023-04-03T07:13:23;1.00;;;1.00;;
4202;SDS011;2115;51.038;7.006;2023-04-03T07:15:49;4.00;;;2.70;;
4202;SDS011;2115;51.038;7.006;2023-04-03T07:18:15;1.20;;;1.20;;
4202;SDS011;2115;51.038;7.006;2023-04-03T07:20:41;1.50;;;1.40;;
4202;SDS011;2115;51.038;7.006;2023-04-03T07:23:07;1.20;;;1.20;;
4202;SDS011;2115;51.038;7.006;2023-04-03T07:25:33;1.93;;;1.67;;
4202;SDS011;2115;51.038;7.006;2023-04-03T07:27:58;2.80;;;2.30;;
4202;SDS011;2115;51.038;7.006;2023-04-03T07:30:24;5.60;;;3.47;;
4202;SDS011;2115;51.038;7.006;2023-04-03T07:32:49;3.10;;;2.10;;
4202;SDS011;2115;51.038;7.006;2023-04-03T07:35:15;1.20;;;1.10;;
4202;SDS011;2115;51.038;7.006;2023-04-03T07:37:41;1.33;;;1.23;;
4202;SDS011;2115;51.038;7.006;2023-04-03T07:40:07;1.50;;;1.40;;
4202;SDS011;2115;51.038;7.006;2023-04-03T07:42:33;1.90;;;1.63;;
4202;SDS011;2115;51.038;7.006;2023-04-03T07:45:00;3.23;;;2.27;;
4202;SDS011;2115;51.038;7.006;2023-04-03T07:47:26;1.20;;;1.20;;
4202;SDS011;2115;51.038;7.006;2023-04-03T07:49:52;2.50;;;1.87;;
4202;SDS011;2115;51.038;7.006;2023-04-03T07:52:17;1.73;;;1.63;;
4202;SDS011;2115;51.038;7.006;2023-04-03T07:54:42;2.73;;;2.00;;
4202;SDS011;2115;51.038;7.006;2023-04-03T07:57:08;1.73;;;1.63;;
4202;SDS011;2115;51.038;7.006;2023-04-03T07:59:33;2.83;;;2.20;;
4202;SDS011;2115;51.038;7.006;2023-04-03T08:01:59;1.92;;;1.60;;
4202;SDS011;2115;51.038;7.006;2023-04-03T08:04:24;2.10;;;1.67;;
4202;SDS011;2115;51.038;7.006;2023-04-03T08:06:51;4.77;;;3.20;;
4202;SDS011;2115;51.038;7.006;2023-04-03T08:09:16;6.27;;;3.67;;
4202;SDS011;2115;51.038;7.006;2023-04-03T08:11:42;3.30;;;2.30;;
4202;SDS011;2115;51.038;7.006;2023-04-03T08:14:09;1.10;;;1.10;;
4202;SDS011;2115;51.038;7.006;2023-04-03T08:16:40;1.73;;;1.57;;
4202;SDS011;2115;51.038;7.006;2023-04-03T08:19:05;1.33;;;1.23;;
4202;SDS011;2115;51.038;7.006;2023-04-03T08:21:32;3.97;;;2.60;;
4202;SDS011;2115;51.038;7.006;2023-04-03T08:23:57;3.80;;;2.50;;
4202;SDS011;2115;51.038;7.006;2023-04-03T08:26:23;3.87;;;2.43;;
4202;SDS011;2115;51.038;7.006;2023-04-03T08:28:48;2.30;;;1.77;;
4202;SDS011;2115;51.038;7.006;2023-04-03T08:31:15;2.00;;;1.63;;
4202;SDS011;2115;51.038;7.006;2023-04-03T08:33:43;1.37;;;1.27;;
4202;SDS011;2115;51.038;7.006;2023-04-03T08:36:16;1.00;;;1.00;;
4202;SDS011;2115;51.038;7.006;2023-04-03T08:38:44;1.93;;;1.67;;
4202;SDS011;2115;51.038;7.006;2023-04-03T08:41:14;1.47;;;1.37;;
4202;SDS011;2115;51.038;7.006;2023-04-03T08:47:44;1.33;;;1.23;;
4202;SDS011;2115;51.038;7.006;2023-04-03T08:49:44;2.20;;;1.63;;
4202;SDS011;2115;51.038;7.006;2023-04-03T08:52:38;2.13;;;1.60;;
4202;SDS011;2115;51.038;7.006;2023-04-03T08:55:04;2.60;;;1.73;;
4202;SDS011;2115;51.038;7.006;2023-04-03T08:57:38;5.20;;;3.07;;
4202;SDS011;2115;51.038;7.006;2023-04-03T09:02:47;1.37;;;1.17;;
4202;SDS011;2115;51.038;7.006;2023-04-03T09:05:20;1.70;;;1.33;;
4202;SDS011;2115;51.038;7.006;2023-04-03T09:08:00;1.30;;;1.20;;
4202;SDS011;2115;51.038;7.006;2023-04-03T09:10:28;1.20;;;1.20;;
4202;SDS011;2115;51.038;7.006;2023-04-03T09:13:06;3.20;;;2.13;;
4202;SDS011;2115;51.038;7.006;2023-04-03T09:15:53;3.70;;;2.13;;
4202;SDS011;2115;51.038;7.006;2023-04-03T09:18:20;1.63;;;1.40;;
4202;SDS011;2115;51.038;7.006;2023-04-03T09:21:31;1.85;;;1.55;;
4202;SDS011;2115;51.038;7.006;2023-04-03T09:23:44;1.00;;;1.00;;
4202;SDS011;2115;51.038;7.006;2023-04-03T09:26:15;1.87;;;1.57;;
4202;SDS011;2115;51.038;7.006;2023-04-03T09:28:44;1.10;;;1.10;;
4202;SDS011;2115;51.038;7.006;2023-04-03T09:31:52;3.63;;;2.27;;
4202;SDS011;2115;51.038;7.006;2023-04-03T09:34:06;0.90;;;0.90;;
4202;SDS011;2115;51.038;7.006;2023-04-03T09:39:11;2.00;;;1.53;;
4202;SDS011;2115;51.038;7.006;2023-04-03T09:41:39;2.30;;;1.60;;
4202;SDS011;2115;51.038;7.006;2023-04-03T09:44:17;3.13;;;2.03;;
4202;SDS011;2115;51.038;7.006;2023-04-03T09:46:46;1.10;;;1.03;;
4202;SDS011;2115;51.038;7.006;2023-04-03T09:49:12;1.30;;;1.20;;
4202;SDS011;2115;51.038;7.006;2023-04-03T09:51:38;1.20;;;1.13;;
4202;SDS011;2115;51.038;7.006;2023-04-03T09:56:55;4.90;;;2.77;;
4202;SDS011;2115;51.038;7.006;2023-04-03T09:59:21;1.13;;;1.03;;
4202;SDS011;2115;51.038;7.006;2023-04-03T10:04:27;0.90;;;0.90;;
4202;SDS011;2115;51.038;7.006;2023-04-03T10:07:02;2.73;;;1.87;;
4202;SDS011;2115;51.038;7.006;2023-04-03T10:09:29;1.90;;;1.37;;
4202;SDS011;2115;51.038;7.006;2023-04-03T10:14:33;3.07;;;1.93;;
4202;SDS011;2115;51.038;7.006;2023-04-03T10:22:03;2.17;;;1.65;;
4202;SDS011;2115;51.038;7.006;2023-04-03T10:24:36;0.70;;;0.70;;
4202;SDS011;2115;51.038;7.006;2023-04-03T10:27:10;1.90;;;1.40;;
4202;SDS011;2115;51.038;7.006;2023-04-03T10:29:40;0.80;;;0.80;;
4202;SDS011;2115;51.038;7.006;2023-04-03T10:32:14;1.23;;;1.13;;
4202;SDS011;2115;51.038;7.006;2023-04-03T10:34:45;0.70;;;0.70;;
4202;SDS011;2115;51.038;7.006;2023-04-03T10:39:59;4.53;;;2.40;;
4202;SDS011;2115;51.038;7.006;2023-04-03T10:45:21;12.98;;;6.57;;
4202;SDS011;2115;51.038;7.006;2023-04-03T10:48:01;5.37;;;4.17;;
4202;SDS011;2115;51.038;7.006;2023-04-03T10:50:47;10.63;;;9.67;;
4202;SDS011;2115;51.038;7.006;2023-04-03T10:53:36;9.40;;;8.60;;
4202;SDS011;2115;51.038;7.006;2023-04-03T11:01:44;15.70;;;14.33;;
4202;SDS011;2115;51.038;7.006;2023-04-03T11:04:11;18.13;;;16.60;;
4202;SDS011;2115;51.038;7.006;2023-04-03T11:06:39;11.37;;;10.40;;
4202;SDS011;2115;51.038;7.006;2023-04-03T11:09:15;19.37;;;17.77;;
4202;SDS011;2115;51.038;7.006;2023-04-03T11:11:45;17.23;;;15.93;;
4202;SDS011;2115;51.038;7.006;2023-04-03T11:14:32;21.90;;;20.00;;
4202;SDS011;2115;51.038;7.006;2023-04-03T11:22:42;26.40;;;22.83;;
4202;SDS011;2115;51.038;7.006;2023-04-03T11:27:40;38.07;;;27.20;;
4202;SDS011;2115;51.038;7.006;2023-04-03T11:30:09;49.20;;;30.67;;
4202;SDS011;2115;51.038;7.006;2023-04-03T11:32:48;59.30;;;33.70;;
4202;SDS011;2115;51.038;7.006;2023-04-03T11:35:57;59.67;;;33.20;;
4202;SDS011;2115;51.038;7.006;2023-04-03T11:38:27;56.50;;;32.10;;
4202;SDS011;2115;51.038;7.006;2023-04-03T11:40:55;61.70;;;34.30;;
4202;SDS011;2115;51.038;7.006;2023-04-03T11:50:46;59.87;;;33.67;;
4202;SDS011;2115;51.038;7.006;2023-04-03T11:55:45;53.13;;;33.33;;
4202;SDS011;2115;51.038;7.006;2023-04-03T11:58:29;46.97;;;31.10;;
4202;SDS011;2115;51.038;7.006;2023-04-03T12:08:43;39.97;;;28.73;;
4202;SDS011;2115;51.038;7.006;2023-04-03T12:21:20;46.43;;;30.80;;
4202;SDS011;2115;51.038;7.006;2023-04-03T12:26:38;51.53;;;32.23;;
4202;SDS011;2115;51.038;7.006;2023-04-03T12:37:39;54.10;;;32.93;;
4202;SDS011;2115;51.038;7.006;2023-04-03T12:45:38;54.30;;;33.07;;
4202;SDS011;2115;51.038;7.006;2023-04-03T12:48:06;58.03;;;34.00;;
4202;SDS011;2115;51.038;7.006;2023-04-03T12:50:39;53.60;;;32.57;;
4202;SDS011;2115;51.038;7.006;2023-04-03T12:53:12;61.17;;;34.37;;
4202;SDS011;2115;51.038;7.006;2023-04-03T12:55:39;61.47;;;35.17;;
4202;SDS011;2115;51.038;7.006;2023-04-03T12:58:16;66.03;;;36.40;;
4202;SDS011;2115;51.038;7.006;2023-04-03T13:01:10;52.10;;;32.67;;
4202;SDS011;2115;51.038;7.006;2023-04-03T13:03:37;62.73;;;35.63;;
4202;SDS011;2115;51.038;7.006;2023-04-03T13:06:05;46.00;;;30.67;;
4202;SDS011;2115;51.038;7.006;2023-04-03T13:08:30;65.87;;;36.70;;
4202;SDS011;2115;51.038;7.006;2023-04-03T13:11:01;51.43;;;31.70;;
4202;SDS011;2115;51.038;7.006;2023-04-03T13:13:28;45.00;;;30.33;;
4202;SDS011;2115;51.038;7.006;2023-04-03T13:15:54;64.63;;;35.73;;
4202;SDS011;2115;51.038;7.006;2023-04-03T13:21:11;65.13;;;36.30;;
4202;SDS011;2115;51.038;7.006;2023-04-03T13:23:40;49.63;;;32.17;;
4202;SDS011;2115;51.038;7.006;2023-04-03T13:26:08;58.53;;;34.20;;
4202;SDS011;2115;51.038;7.006;2023-04-03T13:28:34;58.10;;;34.10;;
4202;SDS011;2115;51.038;7.006;2023-04-03T13:33:39;62.60;;;34.40;;
4202;SDS011;2115;51.038;7.006;2023-04-03T13:36:26;67.13;;;35.60;;
4202;SDS011;2115;51.038;7.006;2023-04-03T13:39:38;69.70;;;36.33;;
4202;SDS011;2115;51.038;7.006;2023-04-03T13:41:46;63.10;;;34.53;;
4202;SDS011;2115;51.038;7.006;2023-04-03T13:46:52;63.80;;;34.90;;
4202;SDS011;2115;51.038;7.006;2023-04-03T13:49:20;63.10;;;34.73;;
4202;SDS011;2115;51.038;7.006;2023-04-03T13:51:47;65.77;;;35.20;;
4202;SDS011;2115;51.038;7.006;2023-04-03T13:54:36;58.80;;;33.53;;
4202;SDS011;2115;51.038;7.006;2023-04-03T13:57:10;59.90;;;33.90;;
4202;SDS011;2115;51.038;7.006;2023-04-03T13:59:38;61.23;;;34.13;;
4202;SDS011;2115;51.038;7.006;2023-04-03T14:04:31;62.80;;;34.77;;
4202;SDS011;2115;51.038;7.006;2023-04-03T14:06:58;69.90;;;36.40;;
4202;SDS011;2115;51.038;7.006;2023-04-03T14:09:25;65.43;;;35.23;;
4202;SDS011;2115;51.038;7.006;2023-04-03T14:11:53;69.53;;;36.70;;
4202;SDS011;2115;51.038;7.006;2023-04-03T14:14:21;70.43;;;36.20;;
4202;SDS011;2115;51.038;7.006;2023-04-03T14:16:53;65.87;;;35.20;;
4202;SDS011;2115;51.038;7.006;2023-04-03T14:19:21;76.97;;;37.87;;
4202;SDS011;2115;51.038;7.006;2023-04-03T14:21:58;75.93;;;37.50;;
4202;SDS011;2115;51.038;7.006;2023-04-03T14:24:24;70.53;;;36.30;;
4202;SDS011;2115;51.038;7.006;2023-04-03T14:26:51;93.67;;;42.07;;
4202;SDS011;2115;51.038;7.006;2023-04-03T14:29:18;76.83;;;38.13;;
4202;SDS011;2115;51.038;7.006;2023-04-03T14:31:45;72.87;;;37.10;;
4202;SDS011;2115;51.038;7.006;2023-04-03T14:34:11;79.20;;;39.10;;
4202;SDS011;2115;51.038;7.006;2023-04-03T14:36:37;76.33;;;38.40;;
4202;SDS011;2115;51.038;7.006;2023-04-03T14:39:04;77.83;;;38.17;;
4202;SDS011;2115;51.038;7.006;2023-04-03T14:41:31;84.13;;;39.90;;
4202;SDS011;2115;51.038;7.006;2023-04-03T14:43:56;82.60;;;39.57;;
4202;SDS011;2115;51.038;7.006;2023-04-03T14:46:24;73.17;;;37.57;;
4202;SDS011;2115;51.038;7.006;2023-04-03T14:48:52;73.73;;;37.57;;
4202;SDS011;2115;51.038;7.006;2023-04-03T14:51:18;49.90;;;32.43;;
4202;SDS011;2115;51.038;7.006;2023-04-03T14:53:44;58.50;;;34.47;;
4202;SDS011;2115;51.038;7.006;2023-04-03T14:56:14;46.43;;;31.50;;
4202;SDS011;2115;51.038;7.006;2023-04-03T14:58:42;42.90;;;30.20;;
4202;SDS011;2115;51.038;7.006;2023-04-03T15:01:11;49.20;;;31.70;;
4202;SDS011;2115;51.038;7.006;2023-04-03T15:03:37;48.10;;;31.70;;
4202;SDS011;2115;51.038;7.006;2023-04-03T15:06:02;55.33;;;33.90;;
4202;SDS011;2115;51.038;7.006;2023-04-03T15:08:28;49.20;;;32.10;;
4202;SDS011;2115;51.038;7.006;2023-04-03T15:10:56;52.50;;;33.00;;
4202;SDS011;2115;51.038;7.006;2023-04-03T15:13:22;77.70;;;40.20;;
4202;SDS011;2115;51.038;7.006;2023-04-03T15:15:48;62.93;;;34.70;;
4202;SDS011;2115;51.038;7.006;2023-04-03T15:18:18;60.07;;;33.80;;
4202;SDS011;2115;51.038;7.006;2023-04-03T15:20:45;78.00;;;38.37;;
4202;SDS011;2115;51.038;7.006;2023-04-03T15:23:12;63.33;;;35.07;;
4202;SDS011;2115;51.038;7.006;2023-04-03T15:25:40;59.40;;;34.13;;
4202;SDS011;2115;51.038;7.006;2023-04-03T15:28:08;59.47;;;34.33;;
4202;SDS011;2115;51.038;7.006;2023-04-03T15:30:36;59.77;;;34.17;;
4202;SDS011;2115;51.038;7.006;2023-04-03T15:33:03;62.07;;;35.10;;
4202;SDS011;2115;51.038;7.006;2023-04-03T15:35:28;70.73;;;36.93;;
4202;SDS011;2115;51.038;7.006;2023-04-03T15:37:53;74.10;;;37.93;;
4202;SDS011;2115;51.038;7.006;2023-04-03T15:40:19;82.33;;;40.43;;
4202;SDS011;2115;51.038;7.006;2023-04-03T15:42:44;69.60;;;36.17;;
4202;SDS011;2115;51.038;7.006;2023-04-03T15:45:10;67.17;;;35.80;;
4202;SDS011;2115;51.038;7.006;2023-04-03T15:47:35;67.80;;;36.10;;
4202;SDS011;2115;51.038;7.006;2023-04-03T15:50:01;95.93;;;43.47;;
4202;SDS011;2115;51.038;7.006;2023-04-03T15:52:26;66.17;;;34.40;;
4202;SDS011;2115;51.038;7.006;2023-04-03T15:54:51;76.03;;;38.10;;
4202;SDS011;2115;51.038;7.006;2023-04-03T15:57:17;74.93;;;36.00;;
4202;SDS011;2115;51.038;7.006;2023-04-03T15:59:42;93.47;;;39.80;;
4202;SDS011;2115;51.038;7.006;2023-04-03T16:02:08;55.33;;;19.00;;
4202;SDS011;2115;51.038;7.006;2023-04-03T16:04:34;165.63;;;48.87;;
4202;SDS011;2115;51.038;7.006;2023-04-03T16:07:00;420.57;;;122.13;;
4202;SDS011;2115;51.038;7.006;2023-04-03T16:09:27;330.40;;;89.27;;
4202;SDS011;2115;51.038;7.006;2023-04-03T16:11:52;350.13;;;93.70;;
4202;SDS011;2115;51.038;7.006;2023-04-03T16:14:17;6.73;;;5.23;;
4202;SDS011;2115;51.038;7.006;2023-04-03T16:16:43;6.47;;;4.70;;
4202;SDS011;2115;51.038;7.006;2023-04-03T16:19:08;5.97;;;5.23;;
4202;SDS011;2115;51.038;7.006;2023-04-03T16:21:34;390.07;;;107.57;;
4202;SDS011;2115;51.038;7.006;2023-04-03T16:23:59;20.17;;;8.13;;
4202;SDS011;2115;51.038;7.006;2023-04-03T16:26:25;119.67;;;32.00;;
4202;SDS011;2115;51.038;7.006;2023-04-03T16:28:51;156.70;;;45.73;;
4202;SDS011;2115;51.038;7.006;2023-04-03T16:31:17;136.13;;;41.00;;
4202;SDS011;2115;51.038;7.006;2023-04-03T16:33:42;125.43;;;39.67;;
4202;SDS011;2115;51.038;7.006;2023-04-03T16:36:08;112.83;;;37.93;;
4202;SDS011;2115;51.038;7.006;2023-04-03T16:38:33;114.47;;;38.23;;
4202;SDS011;2115;51.038;7.006;2023-04-03T16:40:59;110.20;;;38.43;;
4202;SDS011;2115;51.038;7.006;2023-04-03T16:43:29;73.10;;;35.60;;
4202;SDS011;2115;51.038;7.006;2023-04-03T16:45:54;74.00;;;36.00;;
4202;SDS011;2115;51.038;7.006;2023-04-03T16:48:21;45.70;;;28.90;;
4202;SDS011;2115;51.038;7.006;2023-04-03T16:50:47;37.73;;;25.87;;
4202;SDS011;2115;51.038;7.006;2023-04-03T16:53:13;33.27;;;24.40;;
4202;SDS011;2115;51.038;7.006;2023-04-03T16:55:39;36.47;;;25.30;;